Historique des mesures à Cassis (13260), France
Quotidien Résumé Avril 17, 2017 Unités:  Métrique    US   Métrique/US
« Précédent (Jour)
Suivant (Jour) »
Quotidien Hebdomadaire Mensuel Annuel Période au choix
  Maximum: Minimum: Moyenne:
Température: TemperatureC °C 11.5 °C 16.5 °C
Point de rosée: DewpointC °C 0.7 °C 3.6 °C
Humidité: Humidity % 29 % 40 %
Vitesse du vent: 0 km/h 4.2 km/h 22.5 km/h
Rafales: 0 km/h - -
Vent:- - SSW
Pression: PressurehPa hPa 1009.4 hPa -
Précipitations: 0.0 mm    
Historical Graphs
 
 
Mesures pour : Avril 17, 2017
Heure Temperature Point de rosée Pression Vent Vitesse du vent Rafales Humidité Pluie (par heure) Conditions
TemperatureC °C DewpointC °C PressurehPa hPa Calm     Humidity % HourlyPrecipMM mm SoftwareType W/m2
00:11 16.8 °C 0.7 °C 1010.7 hPa NW 46.3 km/h 76.4 km/h 34 % 0.0 mm open2300-1.11 W/m2
01:11 15.3 °C 2.1 °C 1011.1 hPa NNW 14 km/h 63.2 km/h 41 % 0.0 mm open2300-1.11 W/m2
02:11 13.9 °C 2.4 °C 1011.1 hPa WNW 48.1 km/h 48.1 km/h 46 % 0.0 mm open2300-1.11 W/m2
03:11 12.9 °C 2.9 °C 1011.1 hPa NW 52 km/h 54.9 km/h 51 % 0.0 mm open2300-1.11 W/m2
04:11 12.6 °C 2.7 °C 1011.7 hPa ESE 9.8 km/h 19.2 km/h 51 % 0.0 mm open2300-1.11 W/m2
05:11 12.1 °C 3.1 °C 1011.7 hPa NW 37.5 km/h 37.5 km/h 54 % 0.0 mm open2300-1.11 W/m2
06:11 11.9 °C 2.8 °C 1011.7 hPa North 23 km/h 23 km/h 54 % 0.0 mm open2300-1.11 W/m2
07:11 11.5 °C 2.7 °C 1012.1 hPa NNE 13.2 km/h 49.2 km/h 55 % 0.0 mm open2300-1.11 W/m2
08:11 13.1 °C 3.2 °C 1012.4 hPa WNW 9.3 km/h 13.2 km/h 51 % 0.0 mm open2300-1.11 W/m2
09:11 13.4 °C 3.7 °C 1012.8 hPa ENE 8 km/h 11.6 km/h 52 % 0.0 mm open2300-1.11 W/m2
10:11 14.6 °C 4.0 °C 1012.4 hPa NNE 6.4 km/h 9.3 km/h 49 % 0.0 mm open2300-1.11 W/m2
11:11 18.4 °C 4.9 °C 1012.4 hPa NW 15.6 km/h 48.6 km/h 41 % 0.0 mm open2300-1.11 W/m2
12:11 20.4 °C 5.6 °C 1012.4 hPa NNW 4.2 km/h 16.9 km/h 38 % 0.0 mm open2300-1.11 W/m2
13:11 20.7 °C 5.0 °C 1012.1 hPa NW 22 km/h 29.5 km/h 36 % 0.0 mm open2300-1.11 W/m2
14:11 20.8 °C 4.7 °C 1011.7 hPa North 6.4 km/h 30.1 km/h 35 % 0.0 mm open2300-1.11 W/m2
15:11 21.4 °C 4.8 °C 1011.1 hPa NNE 10.3 km/h 10.3 km/h 34 % 0.0 mm open2300-1.11 W/m2
16:11 21.9 °C 4.8 °C 1010.0 hPa NE 22.5 km/h 22.5 km/h 33 % 0.0 mm open2300-1.11 W/m2
17:11 22.3 °C 3.4 °C 1009.7 hPa NNE 22.5 km/h 26.2 km/h 29 % 0.0 mm open2300-1.11 W/m2
18:11 22.4 °C 3.4 °C 1009.4 hPa NW 59.5 km/h 59.5 km/h 29 % 0.0 mm open2300-1.11 W/m2
19:11 21.1 °C 4.6 °C 1009.4 hPa West 24.3 km/h 32.3 km/h 34 % 0.0 mm open2300-1.11 W/m2
20:11 19.9 °C 4.7 °C 1009.4 hPa WNW 45.4 km/h 45.4 km/h 37 % 0.0 mm open2300-1.11 W/m2
21:11 18.8 °C 5.2 °C 1010.0 hPa NNW 13.2 km/h 37 km/h 41 % 0.0 mm open2300-1.11 W/m2
22:11 18.2 °C 5.0 °C 1010.0 hPa NE 23.8 km/h 23.8 km/h 42 % 0.0 mm open2300-1.11 W/m2
23:11 17.6 °C 4.2 °C 1009.7 hPa NNW 25.4 km/h 51 km/h 41 % 0.0 mm open2300-1.11 W/m2
Observations météo à CASSIS
WU-History script by Weather Underground - 1 mb